sensor_id;sensor_type;location;lat;lon;timestamp;pressure;altitude;pressure_sealevel;temperature;humidity
43161;BME280;40968;52.342;5.528;2022-08-23T00:00:39;101361.06;;;22.75;51.78
43161;BME280;40968;52.342;5.528;2022-08-23T00:03:06;101437.25;;;23.25;51.97
43161;BME280;40968;52.342;5.528;2022-08-23T00:05:32;101454.69;;;23.24;51.76
43161;BME280;40968;52.342;5.528;2022-08-23T00:07:59;101356.03;;;22.64;52.17
43161;BME280;40968;52.342;5.528;2022-08-23T00:10:26;101459.84;;;23.18;52.18
43161;BME280;40968;52.342;5.528;2022-08-23T00:12:54;101459.38;;;23.15;52.25
43161;BME280;40968;52.342;5.528;2022-08-23T00:15:21;101448.81;;;23.04;52.38
43161;BME280;40968;52.342;5.528;2022-08-23T00:17:48;101455.09;;;23.12;52.79
43161;BME280;40968;52.342;5.528;2022-08-23T00:20:17;101432.31;;;22.97;52.45
43161;BME280;40968;52.342;5.528;2022-08-23T00:22:44;101438.81;;;22.96;52.95
43161;BME280;40968;52.342;5.528;2022-08-23T00:25:12;101426.22;;;22.87;52.96
43161;BME280;40968;52.342;5.528;2022-08-23T00:27:39;101458.25;;;23.01;52.95
43161;BME280;40968;52.342;5.528;2022-08-23T00:30:09;101453.78;;;23.00;52.85
43161;BME280;40968;52.342;5.528;2022-08-23T00:32:38;101462.69;;;23.02;52.92
43161;BME280;40968;52.342;5.528;2022-08-23T00:35:05;101442.56;;;22.95;53.07
43161;BME280;40968;52.342;5.528;2022-08-23T00:37:33;101414.00;;;22.74;53.38
43161;BME280;40968;52.342;5.528;2022-08-23T00:40:00;101446.31;;;22.94;53.11
43161;BME280;40968;52.342;5.528;2022-08-23T00:42:31;101433.09;;;22.82;53.70
43161;BME280;40968;52.342;5.528;2022-08-23T00:45:22;101372.91;;;22.44;53.83
43161;BME280;40968;52.342;5.528;2022-08-23T00:48:07;101446.75;;;22.82;53.99
43161;BME280;40968;52.342;5.528;2022-08-23T00:50:37;101449.47;;;22.82;54.04
43161;BME280;40968;52.342;5.528;2022-08-23T00:53:11;101441.28;;;22.82;54.46
43161;BME280;40968;52.342;5.528;2022-08-23T00:55:41;101438.56;;;22.82;54.77
43161;BME280;40968;52.342;5.528;2022-08-23T00:58:10;101447.59;;;22.83;54.47
43161;BME280;40968;52.342;5.528;2022-08-23T01:00:39;101336.16;;;22.15;54.76
43161;BME280;40968;52.342;5.528;2022-08-23T01:03:08;101449.28;;;22.84;54.59
43161;BME280;40968;52.342;5.528;2022-08-23T01:05:43;101378.69;;;22.41;54.41
43161;BME280;40968;52.342;5.528;2022-08-23T01:08:11;101367.78;;;22.33;54.55
43161;BME280;40968;52.342;5.528;2022-08-23T01:10:41;101403.06;;;22.51;54.62
43161;BME280;40968;52.342;5.528;2022-08-23T01:13:12;101392.34;;;22.41;54.78
43161;BME280;40968;52.342;5.528;2022-08-23T01:15:44;101418.56;;;22.59;54.68
43161;BME280;40968;52.342;5.528;2022-08-23T01:18:13;101307.66;;;21.86;54.83
43161;BME280;40968;52.342;5.528;2022-08-23T01:20:44;101447.16;;;22.71;55.07
43161;BME280;40968;52.342;5.528;2022-08-23T01:23:23;101381.50;;;22.25;55.11
43161;BME280;40968;52.342;5.528;2022-08-23T01:25:50;101317.03;;;21.84;54.95
43161;BME280;40968;52.342;5.528;2022-08-23T01:28:17;101409.44;;;22.35;55.32
43161;BME280;40968;52.342;5.528;2022-08-23T01:30:44;101377.44;;;22.12;55.50
43161;BME280;40968;52.342;5.528;2022-08-23T01:33:13;101387.13;;;22.23;55.80
43161;BME280;40968;52.342;5.528;2022-08-23T01:35:42;101442.81;;;22.54;55.60
43161;BME280;40968;52.342;5.528;2022-08-23T01:38:11;101382.41;;;22.09;55.54
43161;BME280;40968;52.342;5.528;2022-08-23T01:40:40;101390.91;;;22.14;55.84
43161;BME280;40968;52.342;5.528;2022-08-23T01:43:07;101444.88;;;22.51;55.69
43161;BME280;40968;52.342;5.528;2022-08-23T01:45:35;101451.34;;;22.50;55.40
43161;BME280;40968;52.342;5.528;2022-08-23T01:48:02;101405.00;;;22.26;55.68
43161;BME280;40968;52.342;5.528;2022-08-23T01:50:30;101451.72;;;22.47;55.72
43161;BME280;40968;52.342;5.528;2022-08-23T01:52:57;101417.31;;;22.30;55.70
43161;BME280;40968;52.342;5.528;2022-08-23T01:55:24;101448.66;;;22.42;55.82
43161;BME280;40968;52.342;5.528;2022-08-23T01:57:55;101395.56;;;22.05;55.74
43161;BME280;40968;52.342;5.528;2022-08-23T02:00:26;101423.09;;;22.27;55.91
43161;BME280;40968;52.342;5.528;2022-08-23T02:02:54;101375.81;;;21.95;55.75
43161;BME280;40968;52.342;5.528;2022-08-23T02:05:20;101443.56;;;22.39;55.81
43161;BME280;40968;52.342;5.528;2022-08-23T02:07:47;101391.97;;;22.05;55.87
43161;BME280;40968;52.342;5.528;2022-08-23T02:10:14;101448.00;;;22.32;56.03
43161;BME280;40968;52.342;5.528;2022-08-23T02:12:41;101416.38;;;22.06;56.26
43161;BME280;40968;52.342;5.528;2022-08-23T02:15:10;101389.28;;;21.96;56.21
43161;BME280;40968;52.342;5.528;2022-08-23T02:17:36;101443.91;;;22.28;56.19
43161;BME280;40968;52.342;5.528;2022-08-23T02:20:04;101419.59;;;22.10;56.11
43161;BME280;40968;52.342;5.528;2022-08-23T02:22:31;101445.31;;;22.24;56.30
43161;BME280;40968;52.342;5.528;2022-08-23T02:24:58;101386.09;;;21.84;56.16
43161;BME280;40968;52.342;5.528;2022-08-23T02:27:25;101408.56;;;21.95;56.46
43161;BME280;40968;52.342;5.528;2022-08-23T02:29:51;101425.91;;;22.02;56.10
43161;BME280;40968;52.342;5.528;2022-08-23T02:32:19;101411.97;;;21.89;56.14
43161;BME280;40968;52.342;5.528;2022-08-23T02:34:46;101405.53;;;21.81;56.33
43161;BME280;40968;52.342;5.528;2022-08-23T02:37:13;101431.91;;;21.97;56.69
43161;BME280;40968;52.342;5.528;2022-08-23T02:39:40;101422.56;;;21.83;56.51
43161;BME280;40968;52.342;5.528;2022-08-23T02:42:08;101355.47;;;21.41;56.49
43161;BME280;40968;52.342;5.528;2022-08-23T02:44:35;101439.09;;;21.90;56.66
43161;BME280;40968;52.342;5.528;2022-08-23T02:47:03;101410.00;;;21.66;56.58
43161;BME280;40968;52.342;5.528;2022-08-23T02:49:33;101384.41;;;21.50;56.56
43161;BME280;40968;52.342;5.528;2022-08-23T02:52:00;101374.91;;;21.38;56.72
43161;BME280;40968;52.342;5.528;2022-08-23T02:54:27;101421.22;;;21.63;56.67
43161;BME280;40968;52.342;5.528;2022-08-23T02:56:53;101415.94;;;21.53;56.61
43161;BME280;40968;52.342;5.528;2022-08-23T02:59:20;101396.72;;;21.38;56.74
43161;BME280;40968;52.342;5.528;2022-08-23T03:01:46;101314.63;;;20.92;56.60
43161;BME280;40968;52.342;5.528;2022-08-23T03:04:13;101454.31;;;21.76;56.88
43161;BME280;40968;52.342;5.528;2022-08-23T03:06:41;101383.59;;;21.33;56.57
43161;BME280;40968;52.342;5.528;2022-08-23T03:09:08;101454.63;;;21.73;56.43
43161;BME280;40968;52.342;5.528;2022-08-23T03:11:35;101453.78;;;21.73;56.72
43161;BME280;40968;52.342;5.528;2022-08-23T03:14:03;101299.16;;;20.76;56.81
43161;BME280;40968;52.342;5.528;2022-08-23T03:16:29;101429.94;;;21.50;57.07
43161;BME280;40968;52.342;5.528;2022-08-23T03:18:56;101458.91;;;21.67;56.89
43161;BME280;40968;52.342;5.528;2022-08-23T03:21:23;101449.38;;;21.63;57.05
43161;BME280;40968;52.342;5.528;2022-08-23T03:23:51;101437.97;;;21.43;57.15
43161;BME280;40968;52.342;5.528;2022-08-23T03:26:18;101296.91;;;20.63;57.07
43161;BME280;40968;52.342;5.528;2022-08-23T03:28:46;101369.13;;;21.08;56.73
43161;BME280;40968;52.342;5.528;2022-08-23T03:31:14;101370.66;;;21.11;57.01
43161;BME280;40968;52.342;5.528;2022-08-23T03:33:41;101464.03;;;21.62;57.21
43161;BME280;40968;52.342;5.528;2022-08-23T03:36:09;101260.47;;;20.39;57.11
43161;BME280;40968;52.342;5.528;2022-08-23T03:38:38;101463.69;;;21.65;57.31
43161;BME280;40968;52.342;5.528;2022-08-23T03:41:07;101466.59;;;21.64;57.14
43161;BME280;40968;52.342;5.528;2022-08-23T03:43:34;101466.25;;;21.67;56.83
43161;BME280;40968;52.342;5.528;2022-08-23T03:46:01;101467.94;;;21.68;56.90
43161;BME280;40968;52.342;5.528;2022-08-23T03:48:28;101470.00;;;21.66;57.14
43161;BME280;40968;52.342;5.528;2022-08-23T03:50:54;101447.84;;;21.52;57.77
43161;BME280;40968;52.342;5.528;2022-08-23T03:53:21;101436.25;;;21.42;58.02
43161;BME280;40968;52.342;5.528;2022-08-23T03:55:49;101353.13;;;20.89;57.82
43161;BME280;40968;52.342;5.528;2022-08-23T03:58:17;101417.34;;;21.24;57.97
43161;BME280;40968;52.342;5.528;2022-08-23T04:00:45;101418.16;;;21.25;58.12
43161;BME280;40968;52.342;5.528;2022-08-23T04:03:12;101467.63;;;21.55;57.87
43161;BME280;40968;52.342;5.528;2022-08-23T04:05:38;101432.47;;;21.35;57.95
43161;BME280;40968;52.342;5.528;2022-08-23T04:08:06;101475.78;;;21.55;57.85
43161;BME280;40968;52.342;5.528;2022-08-23T04:10:33;101399.78;;;21.10;57.60
43161;BME280;40968;52.342;5.528;2022-08-23T04:13:00;101357.88;;;20.78;57.83
43161;BME280;40968;52.342;5.528;2022-08-23T04:15:28;101483.28;;;21.52;57.88
43161;BME280;40968;52.342;5.528;2022-08-23T04:17:57;101447.13;;;21.26;57.95
43161;BME280;40968;52.342;5.528;2022-08-23T04:20:23;101455.16;;;21.19;58.21
43161;BME280;40968;52.342;5.528;2022-08-23T04:22:50;101504.06;;;21.37;58.48
43161;BME280;40968;52.342;5.528;2022-08-23T04:25:17;101482.22;;;21.20;58.53
43161;BME280;40968;52.342;5.528;2022-08-23T04:27:44;101350.28;;;20.31;58.62
43161;BME280;40968;52.342;5.528;2022-08-23T04:30:11;101502.66;;;21.16;59.16
43161;BME280;40968;52.342;5.528;2022-08-23T04:32:39;101446.06;;;20.85;59.04
43161;BME280;40968;52.342;5.528;2022-08-23T04:35:06;101444.19;;;20.78;59.26
43161;BME280;40968;52.342;5.528;2022-08-23T04:37:32;101496.19;;;21.09;59.04
43161;BME280;40968;52.342;5.528;2022-08-23T04:39:59;101482.00;;;20.97;59.07
43161;BME280;40968;52.342;5.528;2022-08-23T04:42:43;101471.63;;;20.84;58.93
43161;BME280;40968;52.342;5.528;2022-08-23T04:45:10;101499.22;;;20.98;58.90
43161;BME280;40968;52.342;5.528;2022-08-23T04:47:36;101501.09;;;20.97;58.63
43161;BME280;40968;52.342;5.528;2022-08-23T04:50:07;101481.16;;;20.89;58.63
43161;BME280;40968;52.342;5.528;2022-08-23T04:52:34;101482.53;;;20.84;58.77
43161;BME280;40968;52.342;5.528;2022-08-23T04:55:00;101451.75;;;20.66;58.54
43161;BME280;40968;52.342;5.528;2022-08-23T04:57:27;101498.88;;;21.01;57.99
43161;BME280;40968;52.342;5.528;2022-08-23T04:59:54;101501.78;;;20.99;58.34
43161;BME280;40968;52.342;5.528;2022-08-23T05:02:20;101502.97;;;20.97;58.87
43161;BME280;40968;52.342;5.528;2022-08-23T05:04:47;101514.88;;;20.96;58.52
43161;BME280;40968;52.342;5.528;2022-08-23T05:07:15;101401.47;;;20.27;58.11
43161;BME280;40968;52.342;5.528;2022-08-23T05:09:41;101410.34;;;20.37;58.09
43161;BME280;40968;52.342;5.528;2022-08-23T05:12:08;101477.72;;;20.78;57.90
43161;BME280;40968;52.342;5.528;2022-08-23T05:14:34;101477.72;;;20.78;57.93
43161;BME280;40968;52.342;5.528;2022-08-23T05:17:01;101483.34;;;20.77;57.98
43161;BME280;40968;52.342;5.528;2022-08-23T05:19:27;101432.03;;;20.56;58.15
43161;BME280;40968;52.342;5.528;2022-08-23T05:21:54;101446.31;;;20.58;58.58
43161;BME280;40968;52.342;5.528;2022-08-23T05:24:22;101521.38;;;21.03;58.78
43161;BME280;40968;52.342;5.528;2022-08-23T05:26:48;101520.38;;;21.04;58.29
43161;BME280;40968;52.342;5.528;2022-08-23T05:29:15;101447.03;;;20.68;57.64
43161;BME280;40968;52.342;5.528;2022-08-23T05:31:41;101518.50;;;21.13;58.03
43161;BME280;40968;52.342;5.528;2022-08-23T05:34:08;101464.78;;;20.80;57.99
43161;BME280;40968;52.342;5.528;2022-08-23T05:36:34;101522.94;;;21.14;57.61
43161;BME280;40968;52.342;5.528;2022-08-23T05:39:02;101497.16;;;21.00;57.56
43161;BME280;40968;52.342;5.528;2022-08-23T05:41:29;101442.97;;;20.72;57.27
43161;BME280;40968;52.342;5.528;2022-08-23T05:43:56;101536.06;;;21.27;56.80
43161;BME280;40968;52.342;5.528;2022-08-23T05:46:23;101464.81;;;20.89;57.29
43161;BME280;40968;52.342;5.528;2022-08-23T05:48:50;101424.53;;;20.66;57.26
43161;BME280;40968;52.342;5.528;2022-08-23T05:51:20;101478.31;;;21.07;56.59
43161;BME280;40968;52.342;5.528;2022-08-23T05:53:49;101438.22;;;20.82;56.27
43161;BME280;40968;52.342;5.528;2022-08-23T05:56:20;101408.94;;;20.76;56.50
43161;BME280;40968;52.342;5.528;2022-08-23T05:58:51;101538.84;;;21.51;56.18
43161;BME280;40968;52.342;5.528;2022-08-23T06:01:18;101544.31;;;21.60;56.83
43161;BME280;40968;52.342;5.528;2022-08-23T06:03:45;101504.72;;;21.31;56.49
43161;BME280;40968;52.342;5.528;2022-08-23T06:06:13;101500.63;;;21.35;56.48
43161;BME280;40968;52.342;5.528;2022-08-23T06:08:41;101558.63;;;21.70;57.05
43161;BME280;40968;52.342;5.528;2022-08-23T06:11:12;101540.91;;;21.66;57.07
43161;BME280;40968;52.342;5.528;2022-08-23T06:13:41;101441.69;;;21.09;56.67
43161;BME280;40968;52.342;5.528;2022-08-23T06:16:10;101548.75;;;21.77;56.65
43161;BME280;40968;52.342;5.528;2022-08-23T06:18:37;101444.41;;;21.17;56.73
43161;BME280;40968;52.342;5.528;2022-08-23T06:21:05;101504.59;;;21.57;56.33
43161;BME280;40968;52.342;5.528;2022-08-23T06:23:32;101515.00;;;21.62;56.39
43161;BME280;40968;52.342;5.528;2022-08-23T06:25:59;101552.31;;;21.86;56.54
43161;BME280;40968;52.342;5.528;2022-08-23T06:28:27;101508.88;;;21.60;56.49
43161;BME280;40968;52.342;5.528;2022-08-23T06:30:55;101559.00;;;21.92;56.29
43161;BME280;40968;52.342;5.528;2022-08-23T06:33:23;101434.88;;;21.22;56.55
43161;BME280;40968;52.342;5.528;2022-08-23T06:36:00;101541.94;;;21.90;56.01
43161;BME280;40968;52.342;5.528;2022-08-23T06:38:27;101488.41;;;21.64;56.13
43161;BME280;40968;52.342;5.528;2022-08-23T06:40:58;101466.91;;;21.44;56.07
43161;BME280;40968;52.342;5.528;2022-08-23T06:43:25;101548.03;;;22.08;55.88
43161;BME280;40968;52.342;5.528;2022-08-23T06:45:51;101547.34;;;22.14;55.88
43161;BME280;40968;52.342;5.528;2022-08-23T06:48:18;101560.47;;;22.19;56.17
43161;BME280;40968;52.342;5.528;2022-08-23T06:50:46;101329.63;;;20.87;55.82
43161;BME280;40968;52.342;5.528;2022-08-23T06:53:12;101562.88;;;22.22;55.49
43161;BME280;40968;52.342;5.528;2022-08-23T06:55:39;101552.44;;;22.26;55.74
43161;BME280;40968;52.342;5.528;2022-08-23T06:58:06;101259.97;;;20.52;55.68
43161;BME280;40968;52.342;5.528;2022-08-23T07:00:32;101486.16;;;21.92;55.73
43161;BME280;40968;52.342;5.528;2022-08-23T07:02:59;101552.78;;;22.39;56.20
43161;BME280;40968;52.342;5.528;2022-08-23T07:05:25;101541.88;;;22.39;56.21
43161;BME280;40968;52.342;5.528;2022-08-23T07:07:53;101278.91;;;20.78;56.05
43161;BME280;40968;52.342;5.528;2022-08-23T07:10:20;101519.66;;;22.26;55.98
43161;BME280;40968;52.342;5.528;2022-08-23T07:12:46;101527.53;;;22.37;55.23
43161;BME280;40968;52.342;5.528;2022-08-23T07:15:13;101543.53;;;22.48;55.39
43161;BME280;40968;52.342;5.528;2022-08-23T07:17:40;101465.97;;;22.10;55.12
43161;BME280;40968;52.342;5.528;2022-08-23T07:20:07;101527.81;;;22.50;55.05
43161;BME280;40968;52.342;5.528;2022-08-23T07:22:34;101501.56;;;22.41;54.75
43161;BME280;40968;52.342;5.528;2022-08-23T07:25:02;101517.06;;;22.49;54.56
43161;BME280;40968;52.342;5.528;2022-08-23T07:27:29;101561.91;;;22.71;54.68
43161;BME280;40968;52.342;5.528;2022-08-23T07:29:55;101464.78;;;22.12;54.59
43161;BME280;40968;52.342;5.528;2022-08-23T07:32:22;101551.66;;;22.65;54.28
43161;BME280;40968;52.342;5.528;2022-08-23T07:34:49;101571.25;;;22.77;54.04
43161;BME280;40968;52.342;5.528;2022-08-23T07:37:16;101569.91;;;22.73;53.82
43161;BME280;40968;52.342;5.528;2022-08-23T07:39:43;101561.91;;;22.71;53.70
43161;BME280;40968;52.342;5.528;2022-08-23T07:42:11;101570.09;;;22.71;54.31
43161;BME280;40968;52.342;5.528;2022-08-23T07:44:38;101524.28;;;22.42;54.24
43161;BME280;40968;52.342;5.528;2022-08-23T07:47:05;101501.25;;;22.28;54.34
43161;BME280;40968;52.342;5.528;2022-08-23T07:49:32;101365.84;;;21.46;54.23
43161;BME280;40968;52.342;5.528;2022-08-23T07:51:59;101584.41;;;22.81;53.78
43161;BME280;40968;52.342;5.528;2022-08-23T07:54:26;101542.63;;;22.64;53.63
43161;BME280;40968;52.342;5.528;2022-08-23T07:56:53;101485.88;;;22.35;53.83
43161;BME280;40968;52.342;5.528;2022-08-23T07:59:21;101505.63;;;22.54;53.35
43161;BME280;40968;52.342;5.528;2022-08-23T08:01:48;101420.47;;;22.02;53.91
43161;BME280;40968;52.342;5.528;2022-08-23T08:04:14;101516.84;;;22.67;53.62
43161;BME280;40968;52.342;5.528;2022-08-23T08:06:43;101499.09;;;22.63;53.78
43161;BME280;40968;52.342;5.528;2022-08-23T08:09:10;101578.94;;;23.13;53.38
43161;BME280;40968;52.342;5.528;2022-08-23T08:11:40;101533.94;;;23.00;52.49
43161;BME280;40968;52.342;5.528;2022-08-23T08:14:08;101488.63;;;22.75;52.31
43161;BME280;40968;52.342;5.528;2022-08-23T08:16:38;101402.78;;;22.38;51.51
43161;BME280;40968;52.342;5.528;2022-08-23T08:19:07;101543.38;;;23.21;51.83
43161;BME280;40968;52.342;5.528;2022-08-23T08:21:35;101571.56;;;23.53;51.51
43161;BME280;40968;52.342;5.528;2022-08-23T08:24:02;101400.81;;;22.55;51.32
43161;BME280;40968;52.342;5.528;2022-08-23T08:26:29;101606.47;;;23.97;51.37
43161;BME280;40968;52.342;5.528;2022-08-23T08:28:56;101598.53;;;24.03;50.42
43161;BME280;40968;52.342;5.528;2022-08-23T08:31:23;101542.09;;;23.78;50.61
43161;BME280;40968;52.342;5.528;2022-08-23T08:33:52;101538.06;;;23.89;48.81
43161;BME280;40968;52.342;5.528;2022-08-23T08:36:31;101602.78;;;24.43;49.05
43161;BME280;40968;52.342;5.528;2022-08-23T08:38:59;101619.69;;;24.62;49.17
43161;BME280;40968;52.342;5.528;2022-08-23T08:41:38;101619.91;;;24.75;48.86
43161;BME280;40968;52.342;5.528;2022-08-23T08:44:13;101615.63;;;24.88;47.93
43161;BME280;40968;52.342;5.528;2022-08-23T08:46:46;101614.88;;;24.94;47.73
43161;BME280;40968;52.342;5.528;2022-08-23T08:49:28;101560.38;;;24.69;48.14
43161;BME280;40968;52.342;5.528;2022-08-23T08:52:00;101614.19;;;25.22;47.90
43161;BME280;40968;52.342;5.528;2022-08-23T08:54:28;101595.09;;;25.13;46.41
43161;BME280;40968;52.342;5.528;2022-08-23T08:56:58;101621.66;;;25.43;45.50
43161;BME280;40968;52.342;5.528;2022-08-23T08:59:28;101597.22;;;25.33;45.21
43161;BME280;40968;52.342;5.528;2022-08-23T09:01:56;101626.03;;;25.59;43.95
43161;BME280;40968;52.342;5.528;2022-08-23T09:04:25;101621.09;;;25.69;43.68
43161;BME280;40968;52.342;5.528;2022-08-23T09:07:00;101573.75;;;25.45;43.47
43161;BME280;40968;52.342;5.528;2022-08-23T09:09:50;101512.44;;;25.16;42.45
43161;BME280;40968;52.342;5.528;2022-08-23T09:12:30;101623.53;;;25.86;41.37
43161;BME280;40968;52.342;5.528;2022-08-23T09:15:13;101597.28;;;25.76;41.98
43161;BME280;40968;52.342;5.528;2022-08-23T09:17:43;101530.97;;;25.51;42.31
43161;BME280;40968;52.342;5.528;2022-08-23T09:20:13;101624.47;;;26.14;42.60
43161;BME280;40968;52.342;5.528;2022-08-23T09:22:42;101585.81;;;25.94;42.88
43161;BME280;40968;52.342;5.528;2022-08-23T09:25:12;101581.56;;;25.92;42.53
43161;BME280;40968;52.342;5.528;2022-08-23T09:27:41;101586.28;;;25.98;42.58
43161;BME280;40968;52.342;5.528;2022-08-23T09:30:10;101631.13;;;26.27;42.93
43161;BME280;40968;52.342;5.528;2022-08-23T09:32:39;101416.38;;;25.10;42.51
43161;BME280;40968;52.342;5.528;2022-08-23T09:35:13;101625.59;;;26.55;41.85
43161;BME280;40968;52.342;5.528;2022-08-23T09:37:48;101603.81;;;26.54;41.34
43161;BME280;40968;52.342;5.528;2022-08-23T09:40:19;101572.72;;;26.46;41.34
43161;BME280;40968;52.342;5.528;2022-08-23T09:43:05;101537.97;;;26.32;41.28
43161;BME280;40968;52.342;5.528;2022-08-23T09:45:34;101614.19;;;26.87;41.54
43161;BME280;40968;52.342;5.528;2022-08-23T09:48:02;101517.06;;;26.38;42.37
43161;BME280;40968;52.342;5.528;2022-08-23T09:50:31;101599.41;;;26.94;41.32
43161;BME280;40968;52.342;5.528;2022-08-23T09:53:01;101617.44;;;27.04;42.22
43161;BME280;40968;52.342;5.528;2022-08-23T09:55:31;101610.28;;;27.09;41.57
43161;BME280;40968;52.342;5.528;2022-08-23T09:58:00;101616.19;;;27.13;41.66
43161;BME280;40968;52.342;5.528;2022-08-23T10:00:31;101528.81;;;26.60;41.67
43161;BME280;40968;52.342;5.528;2022-08-23T10:03:17;101577.03;;;26.97;41.29
43161;BME280;40968;52.342;5.528;2022-08-23T10:05:48;101538.19;;;26.72;41.86
43161;BME280;40968;52.342;5.528;2022-08-23T10:08:21;101533.59;;;26.79;42.21
43161;BME280;40968;52.342;5.528;2022-08-23T10:10:50;101584.31;;;27.32;42.22
43161;BME280;40968;52.342;5.528;2022-08-23T10:13:17;101603.63;;;27.45;42.03
43161;BME280;40968;52.342;5.528;2022-08-23T10:15:51;101602.59;;;27.53;41.19
43161;BME280;40968;52.342;5.528;2022-08-23T10:18:27;101613.84;;;27.65;40.88
43161;BME280;40968;52.342;5.528;2022-08-23T10:21:02;101596.25;;;27.59;40.59
43161;BME280;40968;52.342;5.528;2022-08-23T10:23:40;101529.84;;;27.07;40.54
43161;BME280;40968;52.342;5.528;2022-08-23T10:26:17;101609.38;;;27.71;40.39
43161;BME280;40968;52.342;5.528;2022-08-23T10:28:53;101607.50;;;27.71;40.05
43161;BME280;40968;52.342;5.528;2022-08-23T10:31:39;101607.94;;;27.82;39.93
43161;BME280;40968;52.342;5.528;2022-08-23T10:34:23;101610.47;;;27.90;40.37
43161;BME280;40968;52.342;5.528;2022-08-23T10:37:03;101593.31;;;27.88;39.66
43161;BME280;40968;52.342;5.528;2022-08-23T10:39:37;101604.97;;;27.96;40.33
43161;BME280;40968;52.342;5.528;2022-08-23T10:42:17;101577.44;;;27.90;40.30
43161;BME280;40968;52.342;5.528;2022-08-23T10:44:54;101599.50;;;28.23;38.94
43161;BME280;40968;52.342;5.528;2022-08-23T10:47:31;101596.50;;;28.38;39.79
43161;BME280;40968;52.342;5.528;2022-08-23T10:50:05;101590.72;;;28.53;38.35
43161;BME280;40968;52.342;5.528;2022-08-23T10:52:37;101564.03;;;28.47;37.81
43161;BME280;40968;52.342;5.528;2022-08-23T10:55:09;101572.94;;;28.49;37.77
43161;BME280;40968;52.342;5.528;2022-08-23T10:57:50;101541.31;;;28.52;37.84
43161;BME280;40968;52.342;5.528;2022-08-23T11:00:21;101559.91;;;28.83;37.24
43161;BME280;40968;52.342;5.528;2022-08-23T11:02:52;101528.09;;;28.81;36.45
43161;BME280;40968;52.342;5.528;2022-08-23T11:05:24;101589.66;;;29.26;36.85
43161;BME280;40968;52.342;5.528;2022-08-23T11:08:10;101570.09;;;29.28;36.36
43161;BME280;40968;52.342;5.528;2022-08-23T11:10:54;101588.91;;;29.44;36.71
43161;BME280;40968;52.342;5.528;2022-08-23T11:13:23;101592.78;;;29.37;35.87
43161;BME280;40968;52.342;5.528;2022-08-23T11:15:57;101559.22;;;29.40;35.96
43161;BME280;40968;52.342;5.528;2022-08-23T11:18:38;101581.53;;;29.70;36.21
43161;BME280;40968;52.342;5.528;2022-08-23T11:21:08;101589.78;;;30.02;35.83
43161;BME280;40968;52.342;5.528;2022-08-23T11:23:45;101594.44;;;30.27;35.20
43161;BME280;40968;52.342;5.528;2022-08-23T11:29:32;101593.41;;;31.02;35.51
43161;BME280;40968;52.342;5.528;2022-08-23T11:32:03;101585.56;;;31.18;34.01
43161;BME280;40968;52.342;5.528;2022-08-23T11:34:34;101593.34;;;31.39;33.41
43161;BME280;40968;52.342;5.528;2022-08-23T11:37:26;101587.34;;;31.42;32.65
43161;BME280;40968;52.342;5.528;2022-08-23T11:40:07;101559.09;;;31.22;32.18
43161;BME280;40968;52.342;5.528;2022-08-23T11:42:48;101594.47;;;31.50;31.37
43161;BME280;40968;52.342;5.528;2022-08-23T11:45:38;101598.41;;;31.42;32.07
43161;BME280;40968;52.342;5.528;2022-08-23T11:48:13;101564.06;;;31.32;32.86
43161;BME280;40968;52.342;5.528;2022-08-23T11:54:06;101555.59;;;31.15;30.67
43161;BME280;40968;52.342;5.528;2022-08-23T11:56:46;101597.69;;;31.35;31.04
43161;BME280;40968;52.342;5.528;2022-08-23T11:59:35;101586.03;;;31.15;30.88
43161;BME280;40968;52.342;5.528;2022-08-23T12:05:38;101595.88;;;31.71;31.39
43161;BME280;40968;52.342;5.528;2022-08-23T12:08:32;101582.78;;;31.79;30.27
43161;BME280;40968;52.342;5.528;2022-08-23T12:11:10;101595.66;;;31.85;30.83
43161;BME280;40968;52.342;5.528;2022-08-23T12:13:48;101589.38;;;31.78;31.34
43161;BME280;40968;52.342;5.528;2022-08-23T12:16:34;101597.22;;;32.04;30.68
43161;BME280;40968;52.342;5.528;2022-08-23T12:19:18;101553.13;;;31.79;30.89
43161;BME280;40968;52.342;5.528;2022-08-23T12:21:49;101525.72;;;31.59;30.22
43161;BME280;40968;52.342;5.528;2022-08-23T12:24:30;101541.97;;;31.55;30.08
43161;BME280;40968;52.342;5.528;2022-08-23T12:27:04;101563.25;;;31.73;30.97
43161;BME280;40968;52.342;5.528;2022-08-23T12:29:51;101533.16;;;31.47;31.13
43161;BME280;40968;52.342;5.528;2022-08-23T12:32:29;101492.19;;;31.25;30.50
43161;BME280;40968;52.342;5.528;2022-08-23T12:35:07;101599.84;;;31.75;31.28
43161;BME280;40968;52.342;5.528;2022-08-23T12:37:43;101577.75;;;31.57;32.13
43161;BME280;40968;52.342;5.528;2022-08-23T12:40:21;101460.41;;;30.85;32.07
43161;BME280;40968;52.342;5.528;2022-08-23T12:42:48;101559.78;;;31.48;30.65
43161;BME280;40968;52.342;5.528;2022-08-23T12:45:20;101596.63;;;31.79;30.58
43161;BME280;40968;52.342;5.528;2022-08-23T12:47:56;101608.44;;;32.10;29.84
43161;BME280;40968;52.342;5.528;2022-08-23T12:50:26;101533.59;;;31.98;29.19
43161;BME280;40968;52.342;5.528;2022-08-23T12:53:00;101573.78;;;32.43;28.63
43161;BME280;40968;52.342;5.528;2022-08-23T12:55:29;101603.97;;;32.92;28.03
43161;BME280;40968;52.342;5.528;2022-08-23T12:57:56;101594.00;;;33.08;28.14
43161;BME280;40968;52.342;5.528;2022-08-23T13:00:27;101594.19;;;33.30;27.53
43161;BME280;40968;52.342;5.528;2022-08-23T13:02:57;101492.59;;;32.88;27.52
43161;BME280;40968;52.342;5.528;2022-08-23T13:05:35;101554.81;;;33.50;26.79
43161;BME280;40968;52.342;5.528;2022-08-23T13:08:07;101601.81;;;33.51;26.81
43161;BME280;40968;52.342;5.528;2022-08-23T13:10:35;101542.44;;;32.83;27.21
43161;BME280;40968;52.342;5.528;2022-08-23T13:13:02;101601.44;;;33.31;27.68
43161;BME280;40968;52.342;5.528;2022-08-23T13:15:46;101601.56;;;33.53;27.41